Time;durP1;ratioP1;P1;durP2;ratioP2;P2;SDS_P1;SDS_P2;PMS_P1;PMS_P2;Temp;Humidity;BMP_temperature;BMP_pressure;BME280_temperature;BME280_humidity;BME280_pressure;Samples;Min_cycle;Max_cycle;Signal;HPM_P1;HPM_P2
2024/03/17 00:01:03;;;;;;;25.40;23.80;;;;;;;1.06;100.00;101541.22;5106902;28;20048;-68
2024/03/17 00:03:29;;;;;;;28.67;26.67;;;;;;;1.03;100.00;101539.72;5108495;28;20120;-68
2024/03/17 00:05:58;;;;;;;28.50;26.58;;;;;;;1.01;100.00;101532.94;5107594;28;20050;-68
2024/03/17 00:08:25;;;;;;;26.42;24.73;;;;;;;0.98;100.00;101541.03;5107111;28;20663;-68
2024/03/17 00:10:52;;;;;;;26.02;24.30;;;;;;;0.90;100.00;101547.69;5107609;28;20108;-68
2024/03/17 00:13:18;;;;;;;26.90;25.20;;;;;;;0.90;100.00;101545.09;5108926;28;20047;-68
2024/03/17 00:15:46;;;;;;;27.65;25.85;;;;;;;0.96;100.00;101541.16;5107717;28;20058;-68
2024/03/17 00:18:12;;;;;;;31.27;29.13;;;;;;;0.98;100.00;101535.81;5106629;28;20059;-68
2024/03/17 00:20:39;;;;;;;30.42;28.17;;;;;;;0.99;100.00;101538.28;5108689;28;20047;-68
2024/03/17 00:23:07;;;;;;;28.75;26.85;;;;;;;1.10;100.00;101540.06;5107847;28;20059;-69
2024/03/17 00:25:35;;;;;;;28.50;26.60;;;;;;;0.91;100.00;101540.72;5108468;28;20039;-68
2024/03/17 00:28:01;;;;;;;30.30;27.23;;;;;;;0.91;100.00;101538.91;5108025;28;20048;-68
2024/03/17 00:30:28;;;;;;;28.77;26.88;;;;;;;0.93;100.00;101535.34;5108096;28;20891;-68
2024/03/17 00:32:55;;;;;;;29.25;26.55;;;;;;;0.97;100.00;101534.13;5106442;28;20101;-68
2024/03/17 00:35:22;;;;;;;30.45;28.40;;;;;;;1.05;100.00;101532.56;5105966;28;20046;-69
2024/03/17 00:37:49;;;;;;;27.70;25.90;;;;;;;0.86;100.00;101541.06;5107909;28;20578;-69
2024/03/17 00:40:18;;;;;;;28.67;26.77;;;;;;;0.89;100.00;101527.72;5105750;28;20043;-69
2024/03/17 00:42:44;;;;;;;27.38;25.48;;;;;;;0.72;100.00;101525.63;5105979;28;20075;-69
2024/03/17 00:45:12;;;;;;;26.83;24.92;;;;;;;0.91;100.00;101520.59;5107252;28;20036;-69
2024/03/17 00:47:39;;;;;;;26.50;24.80;;;;;;;0.66;100.00;101528.72;5104801;28;20059;-70
2024/03/17 00:50:08;;;;;;;32.05;28.15;;;;;;;0.97;100.00;101523.66;5107662;28;20043;-69
2024/03/17 00:52:34;;;;;;;28.63;26.63;;;;;;;0.84;100.00;101524.66;5107091;28;20044;-69
2024/03/17 00:55:01;;;;;;;26.33;24.60;;;;;;;0.83;100.00;101517.75;5103624;28;20067;-68
2024/03/17 00:57:29;;;;;;;27.13;25.05;;;;;;;0.52;100.00;101524.59;5105939;28;20515;-68
2024/03/17 00:59:56;;;;;;;24.70;23.05;;;;;;;0.77;100.00;101531.34;5101912;28;20055;-69
2024/03/17 01:02:23;;;;;;;27.50;25.70;;;;;;;0.84;100.00;101532.50;5106591;28;20048;-69
2024/03/17 01:04:49;;;;;;;26.38;24.58;;;;;;;0.52;100.00;101522.00;5105762;28;20040;-68
2024/03/17 01:07:16;;;;;;;27.63;25.77;;;;;;;0.80;100.00;101536.31;5104507;28;20088;-68
2024/03/17 01:09:42;;;;;;;28.92;26.63;;;;;;;0.69;100.00;101533.72;5107537;28;20778;-70
2024/03/17 01:12:09;;;;;;;25.80;24.15;;;;;;;0.62;100.00;101536.00;5106371;28;20047;-70
2024/03/17 01:14:37;;;;;;;26.52;24.80;;;;;;;0.75;100.00;101530.63;5104459;28;20047;-70
2024/03/17 01:17:05;;;;;;;27.50;25.70;;;;;;;0.72;100.00;101527.41;5106602;28;20737;-71
2024/03/17 01:19:32;;;;;;;26.63;24.92;;;;;;;0.89;100.00;101526.91;5105979;28;20487;-70
2024/03/17 01:22:01;;;;;;;26.95;25.15;;;;;;;0.84;100.00;101531.66;5108051;28;20066;-70
2024/03/17 01:24:31;;;;;;;27.73;25.83;;;;;;;0.79;100.00;101532.06;5107148;28;20056;-70
2024/03/17 01:26:58;;;;;;;28.38;26.48;;;;;;;0.74;100.00;101530.75;5107571;28;20067;-70
2024/03/17 01:29:25;;;;;;;26.80;25.00;;;;;;;0.62;100.00;101532.56;5105915;28;20096;-70
2024/03/17 01:31:53;;;;;;;29.23;27.23;;;;;;;0.55;100.00;101524.38;5107151;28;20047;-70
2024/03/17 01:34:20;;;;;;;27.95;26.15;;;;;;;0.39;100.00;101532.59;5107313;28;20533;-70
2024/03/17 01:36:47;;;;;;;29.25;27.15;;;;;;;0.34;100.00;101528.66;5107845;28;20813;-70
2024/03/17 01:39:13;;;;;;;33.33;31.02;;;;;;;0.49;100.00;101535.31;5107060;28;20060;-69
2024/03/17 01:41:40;;;;;;;28.95;26.67;;;;;;;0.37;100.00;101537.09;5106745;28;20048;-69
2024/03/17 01:44:07;;;;;;;30.15;28.00;;;;;;;0.41;100.00;101525.44;5102197;28;20051;-69
2024/03/17 01:46:34;;;;;;;31.55;29.17;;;;;;;0.55;100.00;101529.59;5106787;28;20055;-69
2024/03/17 01:49:04;;;;;;;29.83;27.83;;;;;;;0.71;100.00;101521.38;5105445;28;20116;-69
2024/03/17 01:51:32;;;;;;;29.13;27.23;;;;;;;0.70;100.00;101527.56;5107156;28;20065;-68
2024/03/17 01:53:58;;;;;;;27.77;25.83;;;;;;;0.54;100.00;101520.06;5106123;28;20048;-68
2024/03/17 01:56:25;;;;;;;26.65;24.85;;;;;;;0.37;100.00;101529.25;5103445;28;20051;-68
2024/03/17 01:58:51;;;;;;;26.75;25.05;;;;;;;0.33;100.00;101532.22;5100986;28;20055;-68
2024/03/17 02:01:19;;;;;;;28.65;26.75;;;;;;;0.31;100.00;101529.72;5106047;28;20681;-68
2024/03/17 02:03:45;;;;;;;30.80;28.42;;;;;;;0.30;100.00;101530.66;5106383;28;20051;-68
2024/03/17 02:06:14;;;;;;;33.00;29.48;;;;;;;0.28;100.00;101529.13;5106022;28;20055;-67
2024/03/17 02:08:49;;;;;;;28.02;26.17;;;;;;;0.27;100.00;101524.84;5103558;28;20047;-68
2024/03/17 02:11:26;;;;;;;30.42;28.35;;;;;;;0.22;100.00;101530.44;5104342;28;20055;-69
2024/03/17 02:13:53;;;;;;;27.25;25.50;;;;;;;0.15;100.00;101527.47;5105094;28;20050;-69
2024/03/17 02:16:21;;;;;;;28.35;26.55;;;;;;;0.19;100.00;101535.91;5104837;28;20415;-69
2024/03/17 02:18:47;;;;;;;28.67;26.85;;;;;;;0.27;100.00;101530.91;5105581;28;20047;-69
2024/03/17 02:21:16;;;;;;;28.40;26.60;;;;;;;0.11;100.00;101531.25;5105202;28;20055;-69
2024/03/17 02:23:44;;;;;;;29.50;27.60;;;;;;;0.28;100.00;101526.53;5104821;28;20055;-69
2024/03/17 02:26:12;;;;;;;27.30;25.60;;;;;;;-0.02;100.00;101541.81;5102828;28;20510;-69
2024/03/17 02:28:42;;;;;;;29.63;27.45;;;;;;;0.17;100.00;101537.78;5104884;28;20507;-69
2024/03/17 02:31:10;;;;;;;28.10;26.30;;;;;;;0.18;100.00;101534.22;5105280;28;20506;-69
2024/03/17 02:33:36;;;;;;;29.58;27.35;;;;;;;0.01;100.00;101537.31;5105882;28;20128;-69
2024/03/17 02:36:06;;;;;;;28.52;26.30;;;;;;;0.19;100.00;101534.13;5103800;28;20054;-69
2024/03/17 02:41:20;;;;;;;26.27;24.65;;;;;;;-0.01;100.00;101540.88;5105149;28;20439;-69
2024/03/17 02:43:48;;;;;;;30.45;28.50;;;;;;;-0.28;100.00;101532.50;5105984;28;20055;-69
2024/03/17 02:46:16;;;;;;;27.75;25.92;;;;;;;-0.14;100.00;101542.75;5104880;28;20052;-70
2024/03/17 02:48:47;;;;;;;24.90;23.30;;;;;;;-0.02;100.00;101544.44;5105390;28;20050;-70
2024/03/17 02:51:15;;;;;;;26.40;24.33;;;;;;;-0.28;100.00;101543.78;5106670;28;20119;-70
2024/03/17 02:53:42;;;;;;;26.95;24.77;;;;;;;-0.32;100.00;101538.91;5106095;28;20058;-71
2024/03/17 02:56:10;;;;;;;26.52;24.85;;;;;;;-0.30;100.00;101534.44;5105994;28;20109;-71
2024/03/17 02:58:41;;;;;;;26.45;25.02;;;;;;;-0.22;100.00;101544.28;5105833;28;20054;-70
2024/03/17 03:01:09;;;;;;;27.13;25.52;;;;;;;-0.35;100.00;101545.19;5099778;28;20170;-71
2024/03/17 03:03:37;;;;;;;29.67;27.42;;;;;;;-0.39;100.00;101548.13;5104771;28;20057;-71
2024/03/17 03:06:09;;;;;;;31.02;28.80;;;;;;;-0.76;100.00;101537.81;5104487;28;20047;-70
2024/03/17 03:08:36;;;;;;;28.08;26.27;;;;;;;-0.42;100.00;101543.16;5106377;28;20491;-71
2024/03/17 03:11:05;;;;;;;29.75;27.95;;;;;;;-0.48;100.00;101541.84;5105587;28;20066;-71
2024/03/17 03:13:39;;;;;;;32.38;30.27;;;;;;;-0.48;100.00;101542.69;5105040;28;20075;-71
2024/03/17 03:16:07;;;;;;;32.03;30.10;;;;;;;-0.50;100.00;101541.94;5105269;28;20067;-71
2024/03/17 03:18:35;;;;;;;31.27;29.17;;;;;;;-0.48;100.00;101545.28;5106140;28;20063;-70
2024/03/17 03:21:02;;;;;;;30.65;28.63;;;;;;;-0.53;100.00;101542.19;5104421;28;20047;-70
2024/03/17 03:23:28;;;;;;;31.38;29.25;;;;;;;-0.69;100.00;101546.88;5103219;28;20521;-71
2024/03/17 03:25:58;;;;;;;30.42;28.58;;;;;;;-0.60;100.00;101543.59;5106440;28;20043;-71
2024/03/17 03:28:26;;;;;;;31.27;29.23;;;;;;;-0.76;100.00;101543.84;5102571;28;20108;-70
2024/03/17 03:30:54;;;;;;;28.73;26.92;;;;;;;-0.67;100.00;101539.75;5102371;28;20128;-69
2024/03/17 03:33:22;;;;;;;27.85;26.10;;;;;;;-0.63;100.00;101550.81;5102675;28;20499;-70
2024/03/17 03:35:50;;;;;;;30.98;29.08;;;;;;;-0.51;100.00;101544.69;5101750;28;20051;-69
2024/03/17 03:38:18;;;;;;;31.13;29.23;;;;;;;-0.63;100.00;101546.41;5104374;28;20785;-69
2024/03/17 03:40:47;;;;;;;29.40;27.60;;;;;;;-0.61;100.00;101546.28;5103165;28;20134;-70
2024/03/17 03:43:15;;;;;;;29.33;27.52;;;;;;;-0.77;100.00;101544.81;5102752;28;20066;-69
2024/03/17 03:45:42;;;;;;;28.25;26.42;;;;;;;-0.74;100.00;101547.19;5102544;28;20120;-69
2024/03/17 03:48:11;;;;;;;29.38;27.60;;;;;;;-0.55;100.00;101546.66;5100077;28;20588;-69
2024/03/17 03:50:39;;;;;;;28.60;26.35;;;;;;;-0.95;100.00;101549.59;5102924;28;20129;-70
2024/03/17 03:53:06;;;;;;;29.08;27.08;;;;;;;-0.78;100.00;101544.94;5100915;28;20059;-70
2024/03/17 03:55:33;;;;;;;32.33;30.02;;;;;;;-0.85;100.00;101541.91;5103623;28;20827;-70
2024/03/17 03:58:03;;;;;;;27.27;25.55;;;;;;;-0.95;100.00;101543.53;5102461;28;20055;-70
2024/03/17 04:00:31;;;;;;;28.20;25.73;;;;;;;-0.78;100.00;101547.53;5100185;28;20512;-69
2024/03/17 04:03:01;;;;;;;34.75;25.63;;;;;;;-0.58;100.00;101549.50;5103144;28;20058;-69
2024/03/17 04:05:30;;;;;;;25.42;23.85;;;;;;;-0.80;100.00;101555.47;5103414;28;20048;-71
2024/03/17 04:07:57;;;;;;;26.80;25.00;;;;;;;-0.79;100.00;101549.28;5103334;28;20067;-69
2024/03/17 04:10:25;;;;;;;27.25;25.55;;;;;;;-0.77;100.00;101550.03;5104092;28;20051;-68
2024/03/17 04:12:52;;;;;;;27.27;25.55;;;;;;;-0.90;100.00;101551.03;5104002;28;20105;-69
2024/03/17 04:15:20;;;;;;;28.13;26.33;;;;;;;-0.53;100.00;101551.78;5102955;28;20496;-69
2024/03/17 04:17:48;;;;;;;28.17;26.23;;;;;;;-0.62;100.00;101547.25;5105016;28;20112;-69
2024/03/17 04:20:16;;;;;;;28.73;26.70;;;;;;;-0.65;100.00;101547.47;5103011;28;20051;-70
2024/03/17 04:22:44;;;;;;;27.23;25.55;;;;;;;-0.60;100.00;101555.81;5102915;28;20131;-69
2024/03/17 04:25:11;;;;;;;24.70;23.23;;;;;;;-0.43;100.00;101552.75;5101867;28;20105;-69
2024/03/17 04:27:38;;;;;;;25.13;23.38;;;;;;;-0.53;100.00;101559.63;5104271;28;20113;-70
2024/03/17 04:30:07;;;;;;;27.33;25.40;;;;;;;-0.28;100.00;101556.00;5101990;28;20051;-69
2024/03/17 04:32:35;;;;;;;26.80;24.35;;;;;;;-0.18;100.00;101561.38;5102146;28;20105;-69
2024/03/17 04:35:02;;;;;;;25.33;23.73;;;;;;;-0.21;100.00;101559.84;5102858;28;20755;-68
2024/03/17 04:37:29;;;;;;;23.83;22.38;;;;;;;-0.27;100.00;101574.19;5107826;28;20047;-69
2024/03/17 04:39:57;;;;;;;28.05;26.25;;;;;;;0.03;100.00;101565.00;5109261;28;20047;-69
2024/03/17 04:42:24;;;;;;;24.17;22.58;;;;;;;0.13;100.00;101568.56;5106961;28;20055;-70
2024/03/17 04:44:53;;;;;;;24.48;22.77;;;;;;;0.15;100.00;101571.91;5107688;28;20132;-70
2024/03/17 04:47:20;;;;;;;26.13;24.52;;;;;;;0.27;100.00;101574.50;5108008;28;20051;-70
2024/03/17 04:49:48;;;;;;;25.00;23.40;;;;;;;0.31;100.00;101576.78;5108599;28;20056;-71
2024/03/17 04:52:16;;;;;;;25.58;23.65;;;;;;;0.33;100.00;101577.47;5107744;28;20499;-69
2024/03/17 04:54:43;;;;;;;25.30;23.70;;;;;;;0.34;100.00;101578.31;5108682;28;20155;-68
2024/03/17 04:57:15;;;;;;;28.65;26.55;;;;;;;0.31;100.00;101579.38;5107753;28;20055;-69
2024/03/17 04:59:42;;;;;;;27.40;25.67;;;;;;;0.27;100.00;101580.53;5101669;28;20079;-68
2024/03/17 05:02:09;;;;;;;28.05;26.05;;;;;;;0.54;100.00;101587.22;5106103;28;20116;-69
2024/03/17 05:04:36;;;;;;;29.85;27.13;;;;;;;0.69;100.00;101589.47;5106442;28;20052;-69
2024/03/17 05:07:03;;;;;;;28.00;25.90;;;;;;;0.83;100.00;101577.91;5106159;28;20124;-69
2024/03/17 05:09:30;;;;;;;27.70;25.85;;;;;;;0.89;100.00;101584.47;5105832;28;20048;-69
2024/03/17 05:11:57;;;;;;;29.10;26.73;;;;;;;0.94;100.00;101584.06;5106383;28;20124;-68
2024/03/17 05:14:26;;;;;;;27.65;25.85;;;;;;;0.90;100.00;101586.09;5105743;28;20120;-68
2024/03/17 05:16:53;;;;;;;27.95;25.75;;;;;;;0.84;100.00;101591.81;5105845;28;20044;-69
2024/03/17 05:19:20;;;;;;;25.80;24.10;;;;;;;1.02;100.00;101579.91;5106557;28;20052;-69
2024/03/17 05:21:47;;;;;;;27.60;25.75;;;;;;;1.09;100.00;101591.56;5105410;28;20615;-69
2024/03/17 05:24:14;;;;;;;29.90;28.00;;;;;;;1.21;100.00;101597.59;5106472;28;20101;-69
2024/03/17 05:26:42;;;;;;;29.65;27.75;;;;;;;1.34;100.00;101593.03;5105766;28;20047;-69
2024/03/17 05:29:09;;;;;;;28.08;26.30;;;;;;;1.47;100.00;101600.69;5107648;28;20160;-70
2024/03/17 05:31:38;;;;;;;29.27;27.30;;;;;;;1.69;100.00;101597.16;5107911;28;20048;-69
2024/03/17 05:34:06;;;;;;;28.90;26.90;;;;;;;1.71;100.00;101592.63;5106570;28;20081;-70
2024/03/17 05:36:33;;;;;;;28.95;26.95;;;;;;;1.84;100.00;101593.25;5104272;28;20048;-70
2024/03/17 05:39:00;;;;;;;27.75;25.50;;;;;;;1.86;100.00;101589.69;5104111;28;20058;-71
2024/03/17 05:41:28;;;;;;;32.42;30.05;;;;;;;1.83;100.00;101596.84;5107392;28;20052;-70
2024/03/17 05:43:57;;;;;;;29.58;27.40;;;;;;;2.12;100.00;101597.97;5104203;28;20052;-70
2024/03/17 05:46:26;;;;;;;28.98;27.05;;;;;;;2.28;100.00;101593.13;5105661;28;20047;-70
2024/03/17 05:48:55;;;;;;;29.90;28.00;;;;;;;2.45;100.00;101600.38;5106675;28;20050;-70
2024/03/17 05:51:25;;;;;;;30.80;28.23;;;;;;;2.60;100.00;101600.00;5107230;28;20515;-70
2024/03/17 05:53:52;;;;;;;30.65;28.65;;;;;;;2.75;100.00;101604.78;5104911;28;20798;-69
2024/03/17 05:56:20;;;;;;;31.42;29.38;;;;;;;2.89;100.00;101595.69;5106826;28;20484;-70
2024/03/17 05:58:47;;;;;;;30.33;28.23;;;;;;;2.85;100.00;101598.75;5106430;28;20051;-69
2024/03/17 06:01:15;;;;;;;31.25;29.15;;;;;;;2.90;100.00;101599.16;5102012;28;20079;-69
2024/03/17 06:03:42;;;;;;;28.90;27.00;;;;;;;3.17;100.00;101606.38;5103517;28;20047;-70
2024/03/17 06:06:11;;;;;;;30.02;27.92;;;;;;;3.50;100.00;101609.59;5106854;28;20043;-70
2024/03/17 06:08:39;;;;;;;32.35;29.85;;;;;;;3.47;100.00;101594.94;5107641;28;20497;-70
2024/03/17 06:11:06;;;;;;;30.83;28.48;;;;;;;3.80;100.00;101606.81;5106425;28;20104;-70
2024/03/17 06:13:34;;;;;;;33.22;30.83;;;;;;;3.76;100.00;101607.25;5105387;28;21015;-69
2024/03/17 06:16:03;;;;;;;29.33;27.13;;;;;;;3.97;100.00;101613.19;5100675;28;20104;-70
2024/03/17 06:18:30;;;;;;;31.75;29.48;;;;;;;4.14;100.00;101606.34;5102611;28;20052;-68
2024/03/17 06:20:59;;;;;;;29.25;27.15;;;;;;;4.48;100.00;101616.34;5105306;28;20055;-69
2024/03/17 06:23:28;;;;;;;31.98;29.63;;;;;;;4.67;100.00;101621.56;5106508;28;20430;-68
2024/03/17 06:25:56;;;;;;;32.25;29.95;;;;;;;4.74;100.00;101621.81;5105180;28;20043;-69
2024/03/17 06:28:24;;;;;;;33.70;31.08;;;;;;;5.12;100.00;101620.78;5103940;28;20052;-69
2024/03/17 06:30:59;;;;;;;33.88;31.38;;;;;;;5.03;100.00;101625.13;5105485;28;20085;-69
2024/03/17 06:33:28;;;;;;;32.92;30.48;;;;;;;5.39;100.00;101624.34;5102903;28;20132;-69
2024/03/17 06:35:55;;;;;;;34.65;32.05;;;;;;;5.28;100.00;101623.56;5098784;28;20415;-69
2024/03/17 06:38:23;;;;;;;36.28;33.65;;;;;;;5.59;100.00;101625.00;5105627;28;20526;-70
2024/03/17 06:40:52;;;;;;;39.47;36.67;;;;;;;6.11;100.00;101630.41;5104938;28;20047;-69
2024/03/17 06:43:20;;;;;;;39.55;36.53;;;;;;;6.40;100.00;101630.94;5103368;28;20070;-68
2024/03/17 06:45:57;;;;;;;37.15;34.35;;;;;;;6.66;100.00;101627.44;5103269;28;20536;-68
2024/03/17 06:48:26;;;;;;;37.08;33.97;;;;;;;6.46;100.00;101631.28;5103227;28;20055;-69
2024/03/17 06:50:54;;;;;;;34.70;32.08;;;;;;;6.68;100.00;101625.47;5106946;28;20952;-70
2024/03/17 06:53:21;;;;;;;39.33;36.25;;;;;;;6.79;100.00;101624.38;5105972;28;20470;-70
2024/03/17 06:56:00;;;;;;;39.30;36.20;;;;;;;7.10;100.00;101620.16;5105672;28;20430;-70
2024/03/17 06:58:29;;;;;;;39.22;36.33;;;;;;;7.20;100.00;101624.47;5103444;28;20051;-69
2024/03/17 07:00:57;;;;;;;52.40;48.10;;;;;;;7.32;100.00;101618.75;5100945;28;20127;-69
2024/03/17 07:03:26;;;;;;;43.53;40.33;;;;;;;7.68;100.00;101621.09;5105836;28;20044;-70
2024/03/17 07:05:54;;;;;;;43.47;40.38;;;;;;;7.59;100.00;101624.72;5104099;28;20055;-70
2024/03/17 07:08:22;;;;;;;42.95;39.65;;;;;;;7.93;100.00;101623.75;5103256;28;20075;-70
2024/03/17 07:11:06;;;;;;;43.22;39.97;;;;;;;8.01;100.00;101615.78;5105413;28;20058;-70
2024/03/17 07:13:34;;;;;;;39.90;37.00;;;;;;;8.31;100.00;101627.50;5104334;28;20047;-69
2024/03/17 07:16:02;;;;;;;41.78;38.58;;;;;;;8.80;100.00;101626.53;5106034;28;20564;-70
2024/03/17 07:18:30;;;;;;;45.58;42.17;;;;;;;8.88;100.00;101622.03;5103105;28;20138;-70
2024/03/17 07:20:59;;;;;;;43.47;40.05;;;;;;;9.43;100.00;101622.06;5102540;28;20477;-69
2024/03/17 07:23:26;;;;;;;47.22;43.53;;;;;;;9.61;100.00;101620.75;5107529;28;20130;-69
2024/03/17 07:25:54;;;;;;;44.30;40.75;;;;;;;10.05;100.00;101619.25;5104966;28;20052;-69
2024/03/17 07:28:23;;;;;;;45.30;41.30;;;;;;;10.04;100.00;101614.94;5104515;28;20043;-69
2024/03/17 07:30:51;;;;;;;43.00;39.70;;;;;;;10.67;100.00;101620.78;5105020;28;20044;-69
2024/03/17 07:33:20;;;;;;;43.20;39.97;;;;;;;10.84;100.00;101611.59;5105204;28;20048;-68
2024/03/17 07:35:51;;;;;;;46.08;42.58;;;;;;;10.75;100.00;101608.22;5105676;28;20522;-69
2024/03/17 07:38:19;;;;;;;48.45;44.88;;;;;;;11.56;100.00;101608.09;5104725;28;20085;-69
2024/03/17 07:40:56;;;;;;;46.88;43.38;;;;;;;11.70;100.00;101609.00;5102957;28;20094;-69
2024/03/17 07:43:25;;;;;;;43.85;40.45;;;;;;;11.90;100.00;101601.25;5103545;28;20134;-69
2024/03/17 07:45:59;;;;;;;44.08;40.78;;;;;;;11.54;100.00;101595.97;5102967;28;20059;-70
2024/03/17 07:48:27;;;;;;;40.00;36.92;;;;;;;11.99;100.00;101602.75;5102700;28;20528;-70
2024/03/17 07:50:58;;;;;;;40.92;37.72;;;;;;;12.74;100.00;101606.47;5103989;28;20574;-69
2024/03/17 07:53:26;;;;;;;41.08;37.97;;;;;;;10.91;100.00;101601.03;5105539;28;20096;-69
2024/03/17 07:56:01;;;;;;;40.28;37.17;;;;;;;12.35;100.00;101604.41;5103810;28;20047;-69
2024/03/17 07:58:32;;;;;;;45.75;42.28;;;;;;;13.78;100.00;101591.13;5101986;28;20564;-68
2024/03/17 08:01:01;;;;;;;41.38;38.33;;;;;;;12.58;100.00;101596.94;5097897;28;20058;-69
2024/03/17 08:03:29;;;;;;;39.30;36.50;;;;;;;12.37;100.00;101597.03;5100623;28;20058;-69
2024/03/17 08:05:56;;;;;;;40.70;37.30;;;;;;;12.63;100.00;101590.22;5103783;28;20040;-68
2024/03/17 08:08:23;;;;;;;42.17;39.10;;;;;;;12.37;100.00;101591.69;5103815;28;20052;-68
2024/03/17 08:10:50;;;;;;;39.13;36.42;;;;;;;12.61;100.00;101598.38;5106911;28;20132;-68
2024/03/17 08:13:18;;;;;;;38.50;35.78;;;;;;;12.69;100.00;101587.56;5108331;28;20128;-69
2024/03/17 08:15:48;;;;;;;40.35;37.45;;;;;;;12.93;100.00;101590.75;5108574;28;20039;-68
2024/03/17 08:18:15;;;;;;;38.17;35.47;;;;;;;12.42;100.00;101588.47;5099363;28;20056;-69
2024/03/17 08:20:44;;;;;;;38.65;35.95;;;;;;;11.80;100.00;101588.22;5109139;28;20039;-69
2024/03/17 08:23:11;;;;;;;38.75;36.00;;;;;;;14.27;100.00;101582.63;5108467;28;20079;-69
2024/03/17 08:25:39;;;;;;;37.15;34.20;;;;;;;14.27;100.00;101582.63;5106605;28;20124;-69
2024/03/17 08:28:07;;;;;;;39.17;36.45;;;;;;;15.19;100.00;101567.25;5106537;28;20056;-69
2024/03/17 08:30:34;;;;;;;36.92;34.05;;;;;;;13.74;100.00;101564.00;5106956;28;20048;-70
2024/03/17 08:33:02;;;;;;;35.80;33.40;;;;;;;15.46;100.00;101561.69;5105016;28;20055;-70
2024/03/17 08:35:29;;;;;;;35.63;33.13;;;;;;;15.44;100.00;101566.47;5107850;28;20060;-67
2024/03/17 08:37:58;;;;;;;34.38;31.88;;;;;;;15.55;100.00;101565.72;5104959;28;20070;-69
2024/03/17 08:40:25;;;;;;;35.33;32.70;;;;;;;14.53;100.00;101567.59;5107375;28;20134;-69
2024/03/17 08:42:52;;;;;;;34.50;32.10;;;;;;;13.55;100.00;101564.81;5106307;28;20071;-68
2024/03/17 08:45:19;;;;;;;38.17;35.38;;;;;;;15.30;100.00;101561.19;5108016;28;20051;-68
2024/03/17 08:47:46;;;;;;;35.60;32.90;;;;;;;15.42;100.00;101558.63;5106151;28;20047;-69
2024/03/17 08:50:15;;;;;;;34.20;31.83;;;;;;;13.02;100.00;101560.19;5107188;28;20136;-69
2024/03/17 08:52:42;;;;;;;33.80;31.50;;;;;;;13.67;100.00;101558.66;5108094;28;20070;-69
2024/03/17 08:55:13;;;;;;;32.80;30.50;;;;;;;13.78;100.00;101556.41;5107694;28;20113;-69
2024/03/17 08:57:41;;;;;;;40.63;37.72;;;;;;;14.37;100.00;101548.28;5106965;28;20074;-70
2024/03/17 09:00:10;;;;;;;32.42;30.23;;;;;;;14.72;100.00;101553.31;5107065;28;20051;-68
2024/03/17 09:02:37;;;;;;;33.65;31.20;;;;;;;14.53;100.00;101549.69;5101145;28;20449;-70
2024/03/17 09:05:05;;;;;;;33.05;30.85;;;;;;;14.01;100.00;101547.94;5106051;28;20055;-69
2024/03/17 09:07:36;;;;;;;35.58;32.97;;;;;;;14.64;100.00;101542.84;5106283;28;20050;-69
2024/03/17 09:10:03;;;;;;;34.42;32.03;;;;;;;13.91;100.00;101546.50;5105976;28;20055;-69
2024/03/17 09:12:30;;;;;;;33.95;31.10;;;;;;;14.98;100.00;101535.50;5107748;28;20048;-69
2024/03/17 09:14:57;;;;;;;33.72;31.30;;;;;;;14.89;100.00;101534.91;5106810;28;20100;-70
2024/03/17 09:17:24;;;;;;;34.50;32.05;;;;;;;13.75;100.00;101536.28;5105607;28;20051;-69
2024/03/17 09:19:51;;;;;;;32.92;30.65;;;;;;;16.37;100.00;101539.63;5103868;28;20052;-69
2024/03/17 09:22:19;;;;;;;35.33;32.78;;;;;;;15.85;100.00;101528.41;5105153;28;20492;-70
2024/03/17 09:24:47;;;;;;;37.17;34.58;;;;;;;16.57;100.00;101536.69;5107092;28;20101;-70
2024/03/17 09:27:18;;;;;;;36.50;33.90;;;;;;;17.50;100.00;101526.50;5103261;28;20424;-70
2024/03/17 09:29:48;;;;;;;31.85;29.65;;;;;;;14.76;100.00;101526.94;5107468;28;20047;-70
2024/03/17 09:32:17;;;;;;;33.72;31.40;;;;;;;15.27;100.00;101518.78;5106887;28;20511;-70
2024/03/17 09:34:48;;;;;;;38.75;36.15;;;;;;;16.52;100.00;101525.84;5104797;28;20047;-70
2024/03/17 09:37:16;;;;;;;39.20;36.70;;;;;;;14.15;100.00;101521.00;5105512;28;20055;-69
2024/03/17 09:39:43;;;;;;;34.28;31.95;;;;;;;14.28;100.00;101521.97;5104618;28;20047;-69
2024/03/17 09:42:19;;;;;;;33.97;31.77;;;;;;;16.57;100.00;101520.59;5105568;28;20047;-68
2024/03/17 09:44:47;;;;;;;33.05;30.88;;;;;;;14.97;100.00;101515.09;5102657;28;20135;-68
2024/03/17 09:47:20;;;;;;;33.13;30.83;;;;;;;14.55;100.00;101506.69;5102345;28;20386;-69
2024/03/17 09:49:48;;;;;;;37.70;35.10;;;;;;;15.57;100.00;101505.56;5105553;28;20047;-69
2024/03/17 09:52:22;;;;;;;35.90;33.40;;;;;;;15.97;100.00;101507.88;5106119;28;20135;-69
2024/03/17 09:54:55;;;;;;;38.50;36.00;;;;;;;15.52;100.00;101502.75;5106226;28;20054;-69
2024/03/17 09:57:24;;;;;;;37.70;35.10;;;;;;;16.15;100.00;101509.75;5105895;28;20132;-70
2024/03/17 09:59:53;;;;;;;36.95;34.25;;;;;;;15.67;100.00;101498.91;5106130;28;20047;-69
2024/03/17 10:02:21;;;;;;;35.33;32.92;;;;;;;15.40;100.00;101499.16;5100082;28;20047;-69
2024/03/17 10:04:48;;;;;;;39.08;36.42;;;;;;;18.07;100.00;101494.50;5106313;28;20438;-69
2024/03/17 10:07:15;;;;;;;38.63;35.83;;;;;;;17.61;100.00;101493.47;5105972;28;20923;-69
2024/03/17 10:09:44;;;;;;;39.45;36.65;;;;;;;16.94;100.00;101494.53;5101887;28;20846;-69
2024/03/17 10:12:28;;;;;;;36.80;34.20;;;;;;;16.35;100.00;101496.13;5100845;28;20048;-69
2024/03/17 10:15:04;;;;;;;39.95;37.13;;;;;;;17.18;100.00;101487.34;5102144;28;20060;-68
2024/03/17 10:17:32;;;;;;;35.20;32.60;;;;;;;16.42;100.00;101491.50;5105102;28;20820;-68
2024/03/17 10:20:17;;;;;;;37.42;34.60;;;;;;;15.94;100.00;101494.94;5101774;28;20048;-69
2024/03/17 10:23:00;;;;;;;35.20;32.58;;;;;;;15.48;100.00;101490.84;5104619;28;20108;-69
2024/03/17 10:25:28;;;;;;;37.72;35.03;;;;;;;15.88;100.00;101485.13;5104237;28;20055;-69
2024/03/17 10:27:57;;;;;;;42.85;39.85;;;;;;;16.75;100.00;101484.88;5104438;28;20065;-68
2024/03/17 10:30:26;;;;;;;39.58;36.80;;;;;;;16.35;100.00;101485.41;5104232;28;20051;-69
2024/03/17 10:32:57;;;;;;;37.33;34.63;;;;;;;16.41;100.00;101489.88;5101266;28;20130;-70
2024/03/17 10:35:30;;;;;;;39.90;37.10;;;;;;;16.34;100.00;101482.94;5104044;28;20061;-68
2024/03/17 10:37:57;;;;;;;;;;;;;;;17.05;100.00;101479.50;5105374;28;20063;-70
2024/03/17 10:40:26;;;;;;;35.83;33.28;;;;;;;15.97;100.00;101480.28;5102552;28;19931;-69
2024/03/17 10:42:53;;;;;;;41.28;38.38;;;;;;;16.29;100.00;101483.63;5104288;28;20052;-69
2024/03/17 10:45:24;;;;;;;41.47;38.58;;;;;;;17.52;100.00;101473.34;5104281;28;20055;-68
2024/03/17 10:47:52;;;;;;;41.13;38.33;;;;;;;17.65;100.00;101475.00;5103521;28;20052;-71
2024/03/17 10:50:21;;;;;;;45.13;42.13;;;;;;;17.25;100.00;101475.69;5103067;28;20457;-69
2024/03/17 10:52:51;;;;;;;46.42;43.33;;;;;;;17.49;100.00;101465.75;5106166;28;20439;-69
2024/03/17 10:55:27;;;;;;;43.70;40.85;;;;;;;16.81;100.00;101470.59;5102045;28;20044;-69
2024/03/17 10:57:57;;;;;;;41.17;38.40;;;;;;;16.56;100.00;101468.03;5103726;28;20119;-69
2024/03/17 11:00:29;;;;;;;47.67;44.65;;;;;;;16.39;100.00;101469.69;5101979;28;20075;-68
2024/03/17 11:02:56;;;;;;;44.88;41.88;;;;;;;18.48;100.00;101463.03;5099441;28;20055;-68
2024/03/17 11:05:26;;;;;;;45.05;42.15;;;;;;;17.07;100.00;101464.00;5104708;28;20115;-69
2024/03/17 11:08:01;;;;;;;40.63;37.92;;;;;;;17.01;100.00;101454.19;5103061;28;20089;-69
2024/03/17 11:10:30;;;;;;;42.88;39.97;;;;;;;17.57;100.00;101452.00;5102291;28;20048;-68
2024/03/17 11:12:58;;;;;;;39.53;36.72;;;;;;;17.07;100.00;101452.44;5103242;28;20056;-69